sensor_id;sensor_type;location;lat;lon;timestamp;P1;durP1;ratioP1;P2;durP2;ratioP2
18188;SDS011;9219;50.396;8.546;2023-09-18T00:01:24;5.53;;;2.93;;
18188;SDS011;9219;50.396;8.546;2023-09-18T00:03:51;5.80;;;3.40;;
18188;SDS011;9219;50.396;8.546;2023-09-18T00:06:19;6.00;;;3.40;;
18188;SDS011;9219;50.396;8.546;2023-09-18T00:09:14;5.67;;;3.27;;
18188;SDS011;9219;50.396;8.546;2023-09-18T00:11:42;5.77;;;3.67;;
18188;SDS011;9219;50.396;8.546;2023-09-18T00:14:09;7.87;;;3.90;;
18188;SDS011;9219;50.396;8.546;2023-09-18T00:16:40;6.07;;;3.70;;
18188;SDS011;9219;50.396;8.546;2023-09-18T00:19:24;8.73;;;3.77;;
18188;SDS011;9219;50.396;8.546;2023-09-18T00:21:51;6.13;;;3.23;;
18188;SDS011;9219;50.396;8.546;2023-09-18T00:24:19;7.40;;;3.97;;
18188;SDS011;9219;50.396;8.546;2023-09-18T00:26:47;5.73;;;3.20;;
18188;SDS011;9219;50.396;8.546;2023-09-18T00:35:03;6.90;;;3.73;;
18188;SDS011;9219;50.396;8.546;2023-09-18T00:37:30;6.20;;;3.60;;
18188;SDS011;9219;50.396;8.546;2023-09-18T00:39:57;6.00;;;3.70;;
18188;SDS011;9219;50.396;8.546;2023-09-18T00:42:25;8.67;;;3.60;;
18188;SDS011;9219;50.396;8.546;2023-09-18T00:44:52;6.03;;;2.93;;
18188;SDS011;9219;50.396;8.546;2023-09-18T00:47:19;12.97;;;4.00;;
18188;SDS011;9219;50.396;8.546;2023-09-18T00:49:46;4.07;;;3.13;;
18188;SDS011;9219;50.396;8.546;2023-09-18T00:52:17;4.97;;;3.03;;
18188;SDS011;9219;50.396;8.546;2023-09-18T00:59:49;9.47;;;3.90;;
18188;SDS011;9219;50.396;8.546;2023-09-18T01:02:17;6.60;;;4.20;;
18188;SDS011;9219;50.396;8.546;2023-09-18T01:04:47;6.17;;;3.23;;
18188;SDS011;9219;50.396;8.546;2023-09-18T01:07:18;7.00;;;3.10;;
18188;SDS011;9219;50.396;8.546;2023-09-18T01:09:45;4.70;;;3.43;;
18188;SDS011;9219;50.396;8.546;2023-09-18T01:12:14;5.53;;;3.40;;
18188;SDS011;9219;50.396;8.546;2023-09-18T01:14:57;7.10;;;3.73;;
18188;SDS011;9219;50.396;8.546;2023-09-18T01:22:33;4.33;;;3.37;;
18188;SDS011;9219;50.396;8.546;2023-09-18T01:25:00;5.90;;;3.53;;
18188;SDS011;9219;50.396;8.546;2023-09-18T01:27:27;5.73;;;3.53;;
18188;SDS011;9219;50.396;8.546;2023-09-18T01:29:54;7.27;;;4.23;;
18188;SDS011;9219;50.396;8.546;2023-09-18T01:32:21;5.97;;;4.33;;
18188;SDS011;9219;50.396;8.546;2023-09-18T01:34:54;5.00;;;3.73;;
18188;SDS011;9219;50.396;8.546;2023-09-18T01:37:23;7.13;;;3.47;;
18188;SDS011;9219;50.396;8.546;2023-09-18T01:39:52;12.80;;;3.93;;
18188;SDS011;9219;50.396;8.546;2023-09-18T01:47:42;5.13;;;3.43;;
18188;SDS011;9219;50.396;8.546;2023-09-18T01:50:10;5.67;;;3.33;;
18188;SDS011;9219;50.396;8.546;2023-09-18T01:52:39;8.20;;;3.70;;
18188;SDS011;9219;50.396;8.546;2023-09-18T01:55:06;5.53;;;3.77;;
18188;SDS011;9219;50.396;8.546;2023-09-18T01:57:33;9.13;;;3.57;;
18188;SDS011;9219;50.396;8.546;2023-09-18T02:00:02;5.23;;;3.43;;
18188;SDS011;9219;50.396;8.546;2023-09-18T02:02:34;5.30;;;4.10;;
18188;SDS011;9219;50.396;8.546;2023-09-18T02:09:09;4.47;;;3.40;;
18188;SDS011;9219;50.396;8.546;2023-09-18T02:11:36;6.23;;;3.70;;
18188;SDS011;9219;50.396;8.546;2023-09-18T02:14:04;6.00;;;4.13;;
18188;SDS011;9219;50.396;8.546;2023-09-18T02:16:32;4.57;;;3.50;;
18188;SDS011;9219;50.396;8.546;2023-09-18T02:18:59;6.87;;;3.77;;
18188;SDS011;9219;50.396;8.546;2023-09-18T02:21:26;11.20;;;3.80;;
18188;SDS011;9219;50.396;8.546;2023-09-18T02:23:53;10.37;;;3.20;;
18188;SDS011;9219;50.396;8.546;2023-09-18T02:26:24;5.13;;;3.90;;
18188;SDS011;9219;50.396;8.546;2023-09-18T02:34:36;5.40;;;4.03;;
18188;SDS011;9219;50.396;8.546;2023-09-18T02:37:03;6.63;;;3.63;;
18188;SDS011;9219;50.396;8.546;2023-09-18T02:39:30;4.80;;;3.40;;
18188;SDS011;9219;50.396;8.546;2023-09-18T02:41:58;6.80;;;3.60;;
18188;SDS011;9219;50.396;8.546;2023-09-18T02:44:25;4.63;;;3.83;;
18188;SDS011;9219;50.396;8.546;2023-09-18T02:46:52;3.83;;;3.40;;
18188;SDS011;9219;50.396;8.546;2023-09-18T02:49:19;8.00;;;3.93;;
18188;SDS011;9219;50.396;8.546;2023-09-18T02:51:47;5.23;;;3.47;;
18188;SDS011;9219;50.396;8.546;2023-09-18T02:59:19;4.30;;;3.33;;
18188;SDS011;9219;50.396;8.546;2023-09-18T03:01:47;4.63;;;3.63;;
18188;SDS011;9219;50.396;8.546;2023-09-18T03:04:14;6.07;;;3.50;;
18188;SDS011;9219;50.396;8.546;2023-09-18T03:06:41;6.70;;;3.77;;
18188;SDS011;9219;50.396;8.546;2023-09-18T03:09:08;4.17;;;3.53;;
18188;SDS011;9219;50.396;8.546;2023-09-18T03:11:35;5.10;;;3.73;;
18188;SDS011;9219;50.396;8.546;2023-09-18T03:14:02;5.17;;;3.40;;
18188;SDS011;9219;50.396;8.546;2023-09-18T03:16:30;4.97;;;3.33;;
18188;SDS011;9219;50.396;8.546;2023-09-18T03:24:27;4.83;;;3.20;;
18188;SDS011;9219;50.396;8.546;2023-09-18T03:26:54;5.37;;;3.40;;
18188;SDS011;9219;50.396;8.546;2023-09-18T03:29:21;7.80;;;4.27;;
18188;SDS011;9219;50.396;8.546;2023-09-18T03:31:48;4.23;;;3.43;;
18188;SDS011;9219;50.396;8.546;2023-09-18T03:34:15;6.20;;;3.67;;
18188;SDS011;9219;50.396;8.546;2023-09-18T03:36:42;6.57;;;4.00;;
18188;SDS011;9219;50.396;8.546;2023-09-18T03:39:09;5.77;;;3.50;;
18188;SDS011;9219;50.396;8.546;2023-09-18T03:41:37;18.40;;;3.90;;
18188;SDS011;9219;50.396;8.546;2023-09-18T03:49:09;3.43;;;2.83;;
18188;SDS011;9219;50.396;8.546;2023-09-18T03:51:36;6.17;;;3.33;;
18188;SDS011;9219;50.396;8.546;2023-09-18T03:54:03;7.27;;;3.10;;
18188;SDS011;9219;50.396;8.546;2023-09-18T03:56:31;4.60;;;3.13;;
18188;SDS011;9219;50.396;8.546;2023-09-18T03:58:58;4.50;;;3.37;;
18188;SDS011;9219;50.396;8.546;2023-09-18T04:01:27;5.77;;;3.37;;
18188;SDS011;9219;50.396;8.546;2023-09-18T04:03:54;9.60;;;3.57;;
18188;SDS011;9219;50.396;8.546;2023-09-18T04:09:37;7.33;;;3.97;;
18188;SDS011;9219;50.396;8.546;2023-09-18T04:12:05;11.67;;;3.73;;
18188;SDS011;9219;50.396;8.546;2023-09-18T04:14:33;5.93;;;3.30;;
18188;SDS011;9219;50.396;8.546;2023-09-18T04:17:00;8.80;;;3.83;;
18188;SDS011;9219;50.396;8.546;2023-09-18T04:19:27;12.37;;;3.60;;
18188;SDS011;9219;50.396;8.546;2023-09-18T04:21:55;7.70;;;3.00;;
18188;SDS011;9219;50.396;8.546;2023-09-18T04:24:22;10.57;;;3.60;;
18188;SDS011;9219;50.396;8.546;2023-09-18T04:26:50;5.73;;;3.30;;
18188;SDS011;9219;50.396;8.546;2023-09-18T04:29:31;5.80;;;3.30;;
18188;SDS011;9219;50.396;8.546;2023-09-18T04:31:58;6.47;;;3.60;;
18188;SDS011;9219;50.396;8.546;2023-09-18T04:34:26;4.40;;;3.57;;
18188;SDS011;9219;50.396;8.546;2023-09-18T04:36:53;6.67;;;3.93;;
18188;SDS011;9219;50.396;8.546;2023-09-18T04:39:20;8.37;;;3.30;;
18188;SDS011;9219;50.396;8.546;2023-09-18T04:41:48;10.40;;;4.60;;
18188;SDS011;9219;50.396;8.546;2023-09-18T04:44:15;8.23;;;3.67;;
18188;SDS011;9219;50.396;8.546;2023-09-18T04:49:59;7.93;;;2.97;;
18188;SDS011;9219;50.396;8.546;2023-09-18T04:52:26;7.83;;;3.33;;
18188;SDS011;9219;50.396;8.546;2023-09-18T04:54:53;6.10;;;3.30;;
18188;SDS011;9219;50.396;8.546;2023-09-18T04:57:20;6.33;;;3.00;;
18188;SDS011;9219;50.396;8.546;2023-09-18T04:59:48;8.20;;;3.17;;
18188;SDS011;9219;50.396;8.546;2023-09-18T05:02:31;6.23;;;3.40;;
18188;SDS011;9219;50.396;8.546;2023-09-18T05:04:58;7.50;;;3.53;;
18188;SDS011;9219;50.396;8.546;2023-09-18T05:10:11;12.23;;;4.07;;
18188;SDS011;9219;50.396;8.546;2023-09-18T05:12:38;7.43;;;4.10;;
18188;SDS011;9219;50.396;8.546;2023-09-18T05:15:06;10.63;;;4.03;;
18188;SDS011;9219;50.396;8.546;2023-09-18T05:17:41;8.93;;;3.73;;
18188;SDS011;9219;50.396;8.546;2023-09-18T05:20:12;10.70;;;4.17;;
18188;SDS011;9219;50.396;8.546;2023-09-18T05:22:41;11.97;;;4.67;;
18188;SDS011;9219;50.396;8.546;2023-09-18T05:25:09;9.57;;;3.77;;
18188;SDS011;9219;50.396;8.546;2023-09-18T05:27:37;12.00;;;4.47;;
18188;SDS011;9219;50.396;8.546;2023-09-18T05:35:39;11.80;;;3.83;;
18188;SDS011;9219;50.396;8.546;2023-09-18T05:38:11;7.07;;;3.90;;
18188;SDS011;9219;50.396;8.546;2023-09-18T05:40:39;12.93;;;4.57;;
18188;SDS011;9219;50.396;8.546;2023-09-18T05:43:06;8.17;;;4.63;;
18188;SDS011;9219;50.396;8.546;2023-09-18T05:45:33;14.77;;;4.53;;
18188;SDS011;9219;50.396;8.546;2023-09-18T05:48:00;10.63;;;4.70;;
18188;SDS011;9219;50.396;8.546;2023-09-18T05:50:31;11.90;;;4.77;;
18188;SDS011;9219;50.396;8.546;2023-09-18T05:58:03;7.53;;;4.27;;
18188;SDS011;9219;50.396;8.546;2023-09-18T06:00:32;10.10;;;4.73;;
18188;SDS011;9219;50.396;8.546;2023-09-18T06:03:00;11.03;;;4.40;;
18188;SDS011;9219;50.396;8.546;2023-09-18T06:05:28;8.33;;;4.23;;
18188;SDS011;9219;50.396;8.546;2023-09-18T06:07:56;5.40;;;3.53;;
18188;SDS011;9219;50.396;8.546;2023-09-18T06:10:24;7.10;;;4.13;;
18188;SDS011;9219;50.396;8.546;2023-09-18T06:12:51;13.93;;;4.07;;
18188;SDS011;9219;50.396;8.546;2023-09-18T06:18:45;7.33;;;4.23;;
18188;SDS011;9219;50.396;8.546;2023-09-18T06:21:12;6.67;;;3.90;;
18188;SDS011;9219;50.396;8.546;2023-09-18T06:23:39;10.03;;;4.40;;
18188;SDS011;9219;50.396;8.546;2023-09-18T06:26:06;6.67;;;4.43;;
18188;SDS011;9219;50.396;8.546;2023-09-18T06:28:33;11.63;;;3.80;;
18188;SDS011;9219;50.396;8.546;2023-09-18T06:31:00;11.73;;;4.37;;
18188;SDS011;9219;50.396;8.546;2023-09-18T06:33:28;13.13;;;3.90;;
18188;SDS011;9219;50.396;8.546;2023-09-18T06:38:57;10.20;;;3.80;;
18188;SDS011;9219;50.396;8.546;2023-09-18T06:41:24;13.67;;;3.60;;
18188;SDS011;9219;50.396;8.546;2023-09-18T06:43:51;7.67;;;3.73;;
18188;SDS011;9219;50.396;8.546;2023-09-18T06:46:18;10.90;;;3.13;;
18188;SDS011;9219;50.396;8.546;2023-09-18T06:48:49;17.07;;;3.67;;
18188;SDS011;9219;50.396;8.546;2023-09-18T06:51:18;5.23;;;2.50;;
18188;SDS011;9219;50.396;8.546;2023-09-18T06:54:03;6.93;;;2.63;;
18188;SDS011;9219;50.396;8.546;2023-09-18T06:59:53;10.53;;;2.70;;
18188;SDS011;9219;50.396;8.546;2023-09-18T07:02:21;11.47;;;2.43;;
18188;SDS011;9219;50.396;8.546;2023-09-18T07:04:49;12.47;;;2.17;;
18188;SDS011;9219;50.396;8.546;2023-09-18T07:07:17;11.63;;;2.93;;
18188;SDS011;9219;50.396;8.546;2023-09-18T07:09:50;5.50;;;1.90;;
18188;SDS011;9219;50.396;8.546;2023-09-18T07:12:30;6.37;;;1.90;;
18188;SDS011;9219;50.396;8.546;2023-09-18T07:14:59;12.77;;;2.10;;
18188;SDS011;9219;50.396;8.546;2023-09-18T07:17:30;7.23;;;1.93;;
18188;SDS011;9219;50.396;8.546;2023-09-18T07:28:27;6.17;;;2.80;;
18188;SDS011;9219;50.396;8.546;2023-09-18T07:30:56;9.77;;;2.40;;
18188;SDS011;9219;50.396;8.546;2023-09-18T07:33:29;7.30;;;2.63;;
18188;SDS011;9219;50.396;8.546;2023-09-18T07:35:56;8.73;;;2.40;;
18188;SDS011;9219;50.396;8.546;2023-09-18T07:38:23;11.13;;;2.40;;
18188;SDS011;9219;50.396;8.546;2023-09-18T07:40:53;6.10;;;2.07;;
18188;SDS011;9219;50.396;8.546;2023-09-18T07:48:28;7.23;;;2.50;;
18188;SDS011;9219;50.396;8.546;2023-09-18T07:50:56;2.80;;;1.67;;
18188;SDS011;9219;50.396;8.546;2023-09-18T07:53:32;6.40;;;1.60;;
18188;SDS011;9219;50.396;8.546;2023-09-18T07:55:59;8.77;;;2.33;;
18188;SDS011;9219;50.396;8.546;2023-09-18T07:58:31;10.63;;;1.87;;
18188;SDS011;9219;50.396;8.546;2023-09-18T08:00:59;8.67;;;2.30;;
18188;SDS011;9219;50.396;8.546;2023-09-18T08:03:26;7.60;;;2.27;;
18188;SDS011;9219;50.396;8.546;2023-09-18T08:11:00;8.97;;;3.27;;
18188;SDS011;9219;50.396;8.546;2023-09-18T08:13:33;9.03;;;2.47;;
18188;SDS011;9219;50.396;8.546;2023-09-18T08:16:01;20.87;;;3.13;;
18188;SDS011;9219;50.396;8.546;2023-09-18T08:18:29;8.30;;;2.13;;
18188;SDS011;9219;50.396;8.546;2023-09-18T08:20:57;19.17;;;3.80;;
18188;SDS011;9219;50.396;8.546;2023-09-18T08:23:24;6.77;;;2.40;;
18188;SDS011;9219;50.396;8.546;2023-09-18T08:25:51;8.53;;;2.30;;
18188;SDS011;9219;50.396;8.546;2023-09-18T08:28:22;12.47;;;3.03;;
18188;SDS011;9219;50.396;8.546;2023-09-18T08:31:02;15.03;;;2.83;;
18188;SDS011;9219;50.396;8.546;2023-09-18T08:33:35;6.00;;;2.50;;
18188;SDS011;9219;50.396;8.546;2023-09-18T08:36:02;9.87;;;4.27;;
18188;SDS011;9219;50.396;8.546;2023-09-18T08:38:29;12.90;;;3.10;;
18188;SDS011;9219;50.396;8.546;2023-09-18T08:40:57;6.27;;;2.50;;
18188;SDS011;9219;50.396;8.546;2023-09-18T08:43:24;7.83;;;2.43;;
18188;SDS011;9219;50.396;8.546;2023-09-18T08:45:52;7.17;;;2.43;;
18188;SDS011;9219;50.396;8.546;2023-09-18T08:51:00;8.50;;;2.47;;
18188;SDS011;9219;50.396;8.546;2023-09-18T08:53:28;11.20;;;2.43;;
18188;SDS011;9219;50.396;8.546;2023-09-18T08:55:57;10.23;;;2.87;;
18188;SDS011;9219;50.396;8.546;2023-09-18T08:58:28;7.23;;;2.47;;
18188;SDS011;9219;50.396;8.546;2023-09-18T09:00:58;6.57;;;2.60;;
18188;SDS011;9219;50.396;8.546;2023-09-18T09:03:26;7.10;;;1.93;;
18188;SDS011;9219;50.396;8.546;2023-09-18T09:05:54;9.40;;;2.80;;
18188;SDS011;9219;50.396;8.546;2023-09-18T09:08:21;6.77;;;2.33;;
18188;SDS011;9219;50.396;8.546;2023-09-18T09:15:54;8.73;;;2.90;;
18188;SDS011;9219;50.396;8.546;2023-09-18T09:18:22;9.30;;;2.53;;
18188;SDS011;9219;50.396;8.546;2023-09-18T09:20:54;7.13;;;2.03;;
18188;SDS011;9219;50.396;8.546;2023-09-18T09:23:24;6.13;;;2.27;;
18188;SDS011;9219;50.396;8.546;2023-09-18T09:25:52;7.03;;;2.37;;
18188;SDS011;9219;50.396;8.546;2023-09-18T09:28:28;11.73;;;2.63;;
18188;SDS011;9219;50.396;8.546;2023-09-18T09:31:00;7.70;;;2.47;;
18188;SDS011;9219;50.396;8.546;2023-09-18T09:40:59;8.33;;;2.40;;
18188;SDS011;9219;50.396;8.546;2023-09-18T09:43:32;6.90;;;2.07;;
18188;SDS011;9219;50.396;8.546;2023-09-18T09:46:00;5.30;;;2.30;;
18188;SDS011;9219;50.396;8.546;2023-09-18T09:48:28;4.80;;;2.10;;
18188;SDS011;9219;50.396;8.546;2023-09-18T09:50:58;6.83;;;1.93;;
18188;SDS011;9219;50.396;8.546;2023-09-18T09:53:42;5.03;;;2.47;;
18188;SDS011;9219;50.396;8.546;2023-09-18T09:56:11;6.50;;;2.27;;
18188;SDS011;9219;50.396;8.546;2023-09-18T09:58:39;6.67;;;1.93;;
18188;SDS011;9219;50.396;8.546;2023-09-18T10:06:25;6.00;;;1.87;;
18188;SDS011;9219;50.396;8.546;2023-09-18T10:08:56;5.17;;;2.03;;
18188;SDS011;9219;50.396;8.546;2023-09-18T10:11:24;5.20;;;1.77;;
18188;SDS011;9219;50.396;8.546;2023-09-18T10:13:55;6.20;;;2.07;;
18188;SDS011;9219;50.396;8.546;2023-09-18T10:16:26;5.47;;;1.90;;
18188;SDS011;9219;50.396;8.546;2023-09-18T10:19:01;6.87;;;2.60;;
18188;SDS011;9219;50.396;8.546;2023-09-18T10:21:38;5.07;;;1.90;;
18188;SDS011;9219;50.396;8.546;2023-09-18T10:29:22;4.00;;;1.83;;
18188;SDS011;9219;50.396;8.546;2023-09-18T10:31:51;5.13;;;2.23;;
18188;SDS011;9219;50.396;8.546;2023-09-18T10:34:20;4.03;;;1.87;;
18188;SDS011;9219;50.396;8.546;2023-09-18T10:36:50;4.00;;;2.63;;
18188;SDS011;9219;50.396;8.546;2023-09-18T10:39:20;3.93;;;2.07;;
18188;SDS011;9219;50.396;8.546;2023-09-18T10:41:50;2.30;;;1.80;;
18188;SDS011;9219;50.396;8.546;2023-09-18T10:44:19;6.87;;;2.17;;
18188;SDS011;9219;50.396;8.546;2023-09-18T10:46:51;5.67;;;1.70;;
18188;SDS011;9219;50.396;8.546;2023-09-18T10:49:34;6.83;;;2.13;;
18188;SDS011;9219;50.396;8.546;2023-09-18T10:52:04;2.83;;;2.07;;
18188;SDS011;9219;50.396;8.546;2023-09-18T10:54:39;4.07;;;1.90;;
18188;SDS011;9219;50.396;8.546;2023-09-18T10:57:08;3.60;;;1.90;;
18188;SDS011;9219;50.396;8.546;2023-09-18T10:59:42;4.63;;;1.97;;
18188;SDS011;9219;50.396;8.546;2023-09-18T11:02:13;5.00;;;2.17;;
18188;SDS011;9219;50.396;8.546;2023-09-18T11:04:44;3.80;;;1.70;;
18188;SDS011;9219;50.396;8.546;2023-09-18T11:18:09;5.00;;;2.27;;
18188;SDS011;9219;50.396;8.546;2023-09-18T11:20:39;3.33;;;1.50;;
18188;SDS011;9219;50.396;8.546;2023-09-18T11:23:10;3.17;;;2.47;;
18188;SDS011;9219;50.396;8.546;2023-09-18T11:25:44;4.27;;;2.00;;
18188;SDS011;9219;50.396;8.546;2023-09-18T11:28:24;2.83;;;1.77;;
18188;SDS011;9219;50.396;8.546;2023-09-18T11:34:40;5.87;;;1.93;;
18188;SDS011;9219;50.396;8.546;2023-09-18T11:37:18;3.83;;;2.27;;
18188;SDS011;9219;50.396;8.546;2023-09-18T11:39:49;4.27;;;1.70;;
18188;SDS011;9219;50.396;8.546;2023-09-18T11:42:17;13.47;;;2.00;;
18188;SDS011;9219;50.396;8.546;2023-09-18T11:44:48;3.23;;;1.97;;
18188;SDS011;9219;50.396;8.546;2023-09-18T11:47:23;2.97;;;1.77;;
18188;SDS011;9219;50.396;8.546;2023-09-18T11:50:11;7.17;;;2.30;;
18188;SDS011;9219;50.396;8.546;2023-09-18T12:00:41;6.37;;;2.37;;
18188;SDS011;9219;50.396;8.546;2023-09-18T12:03:15;4.40;;;2.33;;
18188;SDS011;9219;50.396;8.546;2023-09-18T12:05:54;2.83;;;2.10;;
18188;SDS011;9219;50.396;8.546;2023-09-18T12:08:23;4.03;;;2.33;;
18188;SDS011;9219;50.396;8.546;2023-09-18T12:10:53;4.23;;;2.47;;
18188;SDS011;9219;50.396;8.546;2023-09-18T12:13:21;9.07;;;2.80;;
18188;SDS011;9219;50.396;8.546;2023-09-18T12:20:56;6.20;;;2.07;;
18188;SDS011;9219;50.396;8.546;2023-09-18T12:23:25;3.80;;;2.37;;
18188;SDS011;9219;50.396;8.546;2023-09-18T12:25:56;4.97;;;2.90;;
18188;SDS011;9219;50.396;8.546;2023-09-18T12:28:26;3.07;;;2.47;;
18188;SDS011;9219;50.396;8.546;2023-09-18T12:30:55;4.40;;;2.80;;
18188;SDS011;9219;50.396;8.546;2023-09-18T12:33:24;2.50;;;2.30;;
18188;SDS011;9219;50.396;8.546;2023-09-18T12:35:53;5.53;;;2.77;;
18188;SDS011;9219;50.396;8.546;2023-09-18T12:38:24;5.47;;;2.70;;
18188;SDS011;9219;50.396;8.546;2023-09-18T12:45:28;3.23;;;2.20;;
18188;SDS011;9219;50.396;8.546;2023-09-18T12:47:56;7.43;;;2.67;;
18188;SDS011;9219;50.396;8.546;2023-09-18T12:50:25;4.13;;;2.83;;
18188;SDS011;9219;50.396;8.546;2023-09-18T12:52:53;6.27;;;3.17;;
18188;SDS011;9219;50.396;8.546;2023-09-18T12:55:35;3.73;;;3.20;;
18188;SDS011;9219;50.396;8.546;2023-09-18T12:58:04;5.27;;;2.87;;
18188;SDS011;9219;50.396;8.546;2023-09-18T13:05:39;5.17;;;2.70;;
18188;SDS011;9219;50.396;8.546;2023-09-18T13:08:06;4.17;;;2.90;;
18188;SDS011;9219;50.396;8.546;2023-09-18T13:10:43;5.43;;;2.43;;
18188;SDS011;9219;50.396;8.546;2023-09-18T13:13:17;3.77;;;2.30;;
18188;SDS011;9219;50.396;8.546;2023-09-18T13:15:45;4.37;;;2.13;;
18188;SDS011;9219;50.396;8.546;2023-09-18T13:18:14;3.97;;;2.57;;
18188;SDS011;9219;50.396;8.546;2023-09-18T13:20:42;5.37;;;2.70;;
18188;SDS011;9219;50.396;8.546;2023-09-18T13:23:10;8.40;;;2.60;;
18188;SDS011;9219;50.396;8.546;2023-09-18T13:30:08;11.37;;;4.33;;
18188;SDS011;9219;50.396;8.546;2023-09-18T13:32:35;5.83;;;3.27;;
18188;SDS011;9219;50.396;8.546;2023-09-18T13:35:07;6.33;;;3.90;;
18188;SDS011;9219;50.396;8.546;2023-09-18T13:37:34;3.67;;;3.37;;
18188;SDS011;9219;50.396;8.546;2023-09-18T13:40:02;5.67;;;2.87;;
18188;SDS011;9219;50.396;8.546;2023-09-18T13:42:34;3.43;;;2.67;;
18188;SDS011;9219;50.396;8.546;2023-09-18T13:45:02;3.77;;;2.70;;
18188;SDS011;9219;50.396;8.546;2023-09-18T13:47:33;3.23;;;2.80;;
18188;SDS011;9219;50.396;8.546;2023-09-18T13:55:07;3.30;;;2.30;;
18188;SDS011;9219;50.396;8.546;2023-09-18T13:57:39;2.90;;;2.13;;
18188;SDS011;9219;50.396;8.546;2023-09-18T14:00:07;3.23;;;2.33;;
18188;SDS011;9219;50.396;8.546;2023-09-18T14:02:37;6.00;;;2.17;;
18188;SDS011;9219;50.396;8.546;2023-09-18T14:05:06;2.80;;;1.97;;
18188;SDS011;9219;50.396;8.546;2023-09-18T14:07:34;2.97;;;1.97;;
18188;SDS011;9219;50.396;8.546;2023-09-18T14:10:01;2.77;;;1.77;;
18188;SDS011;9219;50.396;8.546;2023-09-18T14:17:34;4.40;;;1.33;;
18188;SDS011;9219;50.396;8.546;2023-09-18T14:20:02;8.80;;;2.30;;
18188;SDS011;9219;50.396;8.546;2023-09-18T14:22:32;4.30;;;1.40;;
18188;SDS011;9219;50.396;8.546;2023-09-18T14:24:59;5.17;;;1.53;;
18188;SDS011;9219;50.396;8.546;2023-09-18T14:27:30;5.10;;;1.67;;
18188;SDS011;9219;50.396;8.546;2023-09-18T14:29:57;6.37;;;2.30;;
18188;SDS011;9219;50.396;8.546;2023-09-18T14:32:24;2.70;;;1.37;;
18188;SDS011;9219;50.396;8.546;2023-09-18T14:38:02;2.73;;;2.17;;
18188;SDS011;9219;50.396;8.546;2023-09-18T14:40:32;4.23;;;1.70;;
18188;SDS011;9219;50.396;8.546;2023-09-18T14:42:59;4.03;;;1.90;;
18188;SDS011;9219;50.396;8.546;2023-09-18T14:45:31;3.83;;;1.40;;
18188;SDS011;9219;50.396;8.546;2023-09-18T14:47:59;1.43;;;1.33;;
18188;SDS011;9219;50.396;8.546;2023-09-18T14:50:26;5.10;;;1.80;;
18188;SDS011;9219;50.396;8.546;2023-09-18T14:53:00;3.53;;;1.57;;
18188;SDS011;9219;50.396;8.546;2023-09-18T15:00:25;3.23;;;1.20;;
18188;SDS011;9219;50.396;8.546;2023-09-18T15:02:53;4.40;;;1.80;;
18188;SDS011;9219;50.396;8.546;2023-09-18T15:05:20;9.13;;;2.47;;
18188;SDS011;9219;50.396;8.546;2023-09-18T15:07:48;3.43;;;1.47;;
18188;SDS011;9219;50.396;8.546;2023-09-18T15:10:15;4.87;;;1.60;;
18188;SDS011;9219;50.396;8.546;2023-09-18T15:12:43;9.50;;;1.90;;
18188;SDS011;9219;50.396;8.546;2023-09-18T15:15:11;9.03;;;2.10;;
18188;SDS011;9219;50.396;8.546;2023-09-18T15:20:18;4.13;;;1.40;;
18188;SDS011;9219;50.396;8.546;2023-09-18T15:22:49;5.70;;;1.80;;
18188;SDS011;9219;50.396;8.546;2023-09-18T15:25:17;5.93;;;1.83;;
18188;SDS011;9219;50.396;8.546;2023-09-18T15:27:45;3.60;;;1.50;;
18188;SDS011;9219;50.396;8.546;2023-09-18T15:30:13;2.57;;;1.40;;
18188;SDS011;9219;50.396;8.546;2023-09-18T15:32:48;7.53;;;1.60;;
18188;SDS011;9219;50.396;8.546;2023-09-18T15:35:19;6.00;;;1.73;;
18188;SDS011;9219;50.396;8.546;2023-09-18T15:40:31;2.07;;;1.17;;
18188;SDS011;9219;50.396;8.546;2023-09-18T15:43:00;2.03;;;1.50;;
18188;SDS011;9219;50.396;8.546;2023-09-18T15:45:28;5.07;;;2.10;;
18188;SDS011;9219;50.396;8.546;2023-09-18T15:47:55;5.40;;;1.80;;
18188;SDS011;9219;50.396;8.546;2023-09-18T15:50:23;3.97;;;1.50;;
18188;SDS011;9219;50.396;8.546;2023-09-18T15:52:51;2.97;;;1.63;;
18188;SDS011;9219;50.396;8.546;2023-09-18T15:55:18;4.27;;;1.30;;
18188;SDS011;9219;50.396;8.546;2023-09-18T15:57:47;3.17;;;1.70;;
18188;SDS011;9219;50.396;8.546;2023-09-18T16:05:34;5.03;;;1.63;;
18188;SDS011;9219;50.396;8.546;2023-09-18T16:08:01;3.77;;;1.67;;
18188;SDS011;9219;50.396;8.546;2023-09-18T16:10:32;5.43;;;1.70;;
18188;SDS011;9219;50.396;8.546;2023-09-18T16:12:59;5.30;;;1.60;;
18188;SDS011;9219;50.396;8.546;2023-09-18T16:15:27;2.87;;;1.53;;
18188;SDS011;9219;50.396;8.546;2023-09-18T16:17:57;3.10;;;1.60;;
18188;SDS011;9219;50.396;8.546;2023-09-18T16:20:25;3.00;;;1.43;;
18188;SDS011;9219;50.396;8.546;2023-09-18T16:22:54;2.23;;;1.30;;
18188;SDS011;9219;50.396;8.546;2023-09-18T16:30:51;8.33;;;1.77;;
18188;SDS011;9219;50.396;8.546;2023-09-18T16:33:18;5.73;;;1.80;;
18188;SDS011;9219;50.396;8.546;2023-09-18T16:35:45;6.77;;;1.73;;
18188;SDS011;9219;50.396;8.546;2023-09-18T16:38:15;3.57;;;1.47;;
18188;SDS011;9219;50.396;8.546;2023-09-18T16:40:42;4.37;;;1.90;;
18188;SDS011;9219;50.396;8.546;2023-09-18T16:43:10;7.77;;;2.37;;
18188;SDS011;9219;50.396;8.546;2023-09-18T16:45:38;2.20;;;1.73;;
18188;SDS011;9219;50.396;8.546;2023-09-18T16:48:09;3.87;;;2.27;;
18188;SDS011;9219;50.396;8.546;2023-09-18T16:56:48;6.37;;;2.23;;
18188;SDS011;9219;50.396;8.546;2023-09-18T16:59:16;3.13;;;1.90;;
18188;SDS011;9219;50.396;8.546;2023-09-18T17:01:45;5.10;;;2.27;;
18188;SDS011;9219;50.396;8.546;2023-09-18T17:04:13;5.47;;;1.80;;
18188;SDS011;9219;50.396;8.546;2023-09-18T17:06:40;3.13;;;1.57;;
18188;SDS011;9219;50.396;8.546;2023-09-18T17:09:08;3.43;;;1.80;;
18188;SDS011;9219;50.396;8.546;2023-09-18T17:11:37;3.33;;;1.53;;
18188;SDS011;9219;50.396;8.546;2023-09-18T17:14:05;2.57;;;1.37;;
18188;SDS011;9219;50.396;8.546;2023-09-18T17:16:50;3.63;;;2.10;;
18188;SDS011;9219;50.396;8.546;2023-09-18T17:19:21;7.07;;;1.90;;
18188;SDS011;9219;50.396;8.546;2023-09-18T17:21:48;3.00;;;1.60;;
18188;SDS011;9219;50.396;8.546;2023-09-18T17:24:16;2.67;;;1.53;;
18188;SDS011;9219;50.396;8.546;2023-09-18T17:26:45;4.37;;;1.97;;
18188;SDS011;9219;50.396;8.546;2023-09-18T17:29:13;2.93;;;1.80;;
18188;SDS011;9219;50.396;8.546;2023-09-18T17:31:41;2.97;;;1.63;;
18188;SDS011;9219;50.396;8.546;2023-09-18T17:39:15;3.67;;;1.67;;
18188;SDS011;9219;50.396;8.546;2023-09-18T17:41:43;5.57;;;2.13;;
18188;SDS011;9219;50.396;8.546;2023-09-18T17:44:10;5.27;;;1.93;;
18188;SDS011;9219;50.396;8.546;2023-09-18T17:46:38;6.33;;;1.60;;
18188;SDS011;9219;50.396;8.546;2023-09-18T17:49:05;5.50;;;2.33;;
18188;SDS011;9219;50.396;8.546;2023-09-18T17:51:34;6.53;;;2.83;;
18188;SDS011;9219;50.396;8.546;2023-09-18T17:54:01;3.63;;;1.90;;
18188;SDS011;9219;50.396;8.546;2023-09-18T17:59:11;5.30;;;1.83;;
18188;SDS011;9219;50.396;8.546;2023-09-18T18:01:38;3.03;;;1.43;;
18188;SDS011;9219;50.396;8.546;2023-09-18T18:04:06;5.50;;;1.87;;
18188;SDS011;9219;50.396;8.546;2023-09-18T18:06:34;5.27;;;1.77;;
18188;SDS011;9219;50.396;8.546;2023-09-18T18:09:01;6.47;;;2.37;;
18188;SDS011;9219;50.396;8.546;2023-09-18T18:11:30;3.47;;;1.63;;
18188;SDS011;9219;50.396;8.546;2023-09-18T18:13:58;3.30;;;2.07;;
18188;SDS011;9219;50.396;8.546;2023-09-18T18:19:10;5.33;;;2.07;;
18188;SDS011;9219;50.396;8.546;2023-09-18T18:21:47;4.10;;;1.90;;
18188;SDS011;9219;50.396;8.546;2023-09-18T18:24:15;3.27;;;1.77;;
18188;SDS011;9219;50.396;8.546;2023-09-18T18:26:43;5.23;;;2.13;;
18188;SDS011;9219;50.396;8.546;2023-09-18T18:29:13;6.03;;;2.13;;
18188;SDS011;9219;50.396;8.546;2023-09-18T18:31:42;3.57;;;1.70;;
18188;SDS011;9219;50.396;8.546;2023-09-18T18:34:13;2.27;;;1.70;;
18188;SDS011;9219;50.396;8.546;2023-09-18T18:40:37;4.93;;;1.67;;
18188;SDS011;9219;50.396;8.546;2023-09-18T18:43:10;7.00;;;1.83;;
18188;SDS011;9219;50.396;8.546;2023-09-18T18:45:42;6.10;;;1.70;;
18188;SDS011;9219;50.396;8.546;2023-09-18T18:48:11;5.67;;;1.80;;
18188;SDS011;9219;50.396;8.546;2023-09-18T18:50:40;3.07;;;1.53;;